Home > Products > Valid Products > SSM

000
SMZS01 NSTU 161156
SSMPPG
AAXX 16124
91765 11566 53104 10256 20231 30093 40097 57002 69931 70282 84440
333 10316 5679/ 58009 70008 555 91612=




000
SMZS01 NSTU 160558
SSMPPG
AAXX 16064
91765 11462 82604 10279 20252 30078 40081 52014 69951 78011 8742/
333 56699 70005 555 91606=




000
SMZS01 NSTU 152354
SSMPPG
AAXX 16004
91765 12569 63206 10313 20248 30078 40081 57014 69904 83241 333
20248 56799 59012 555 91600=




000
SMZS01 NSTU 151755
SSMPPG
AAXX 15184
91765 32469 19902 10249 20237 30080 40083 51010 81100 333 569//
70015 555 91518=




000
SMZS01 NSTU 151154
SSMPPG
AAXX 15124
91765 32466 10000 10251 20235 30085 40088 56008 81100 333 10307
569// 59007 70015 555 91512=




000
SMZS01 NSTU 150600
SSMPPG
AAXX 15064
91765 11466 23203 10265 20242 30075 40078 52005 69901 70281 82100
333 567// 70015 555 91506=




000
SMZS01 NSTU 142352
SSMPPG
AAXX 15004
91765 11469 72903 10282 20252 30090 40093 57014 60024 78082 85810
333 20245 56699 58000 70015 555 91500=




000
SMZS01 NSTU 141750
SSMPPG
AAXX 14184
91765 32569 19902 10245 20232 30091 40095 51010 81105 333 569/9 555
91418=




000
SMZS01 NSTU 141214
SSMPPG
AAXX 14124
91765 32566 19902 10256 20240 30091 40095 56005 81100 333 10312
569// 59015 555 91412=




000
SMZS01 NSTU 140553
SSMPPG
AAXX 14064
91765 32566 23403 10275 20239 30081 40085 52005 82100 333 568//
70000 555 91406=




000
SMZS01 NSTU 132354
SSMPPG
AAXX 14004
91765 32469 41007 10312 20256 30090 40093 57025 83170 333 20277
5629/ 59012 555 91400=




000
SMZS01 NSTU 131751
SSMPPG
AAXX 13184
91765 32469 31209 10278 20243 30102 40105 51008 83100 333 563// 555
91318=




    US Dept of Commerce
    National Oceanic and Atmospheric Administration
    National Weather Service
    1325 East West Highway
    Silver Spring, MD 20910
    Page Author: NWS Internet Services Team
Disclaimer
Information Quality
Credits
Glossary
Privacy Policy
Freedom of Information Act (FOIA)
About Us
Career Opportunities